Time;durP1;ratioP1;P1;durP2;ratioP2;P2;SDS_P1;SDS_P2;PMS_P1;PMS_P2;Temp;Humidity;BMP_temperature;BMP_pressure;BME280_temperature;BME280_humidity;BME280_pressure;Samples;Min_cycle;Max_cycle;Signal;HPM_P1;HPM_P2
2022/06/20 00:00:06;;;;;;;16.40;7.87;;;25.20;1.00;;;;;;5023378;28;20256;-76
2022/06/20 00:02:32;;;;;;;15.10;7.20;;;25.20;1.00;;;;;;5025863;28;20439;-76
2022/06/20 00:05:01;;;;;;;12.80;7.27;;;25.10;1.00;;;;;;5030215;28;20435;-76
2022/06/20 00:07:26;;;;;;;13.17;6.93;;;25.20;1.00;;;;;;5024197;28;20192;-76
2022/06/20 00:09:52;;;;;;;18.23;7.87;;;25.10;1.00;;;;;;5023439;28;20431;-76
2022/06/20 00:12:22;;;;;;;13.80;7.00;;;25.20;1.00;;;;;;5012633;28;20280;-76
2022/06/20 00:14:54;;;;;;;15.73;7.77;;;25.40;1.00;;;;;;5024203;28;20174;-76
2022/06/20 00:17:20;;;;;;;16.50;7.87;;;25.10;1.00;;;;;;5025574;28;20436;-76
2022/06/20 00:19:46;;;;;;;13.90;7.40;;;25.20;1.00;;;;;;5027404;28;20509;-76
2022/06/20 00:22:12;;;;;;;17.20;8.07;;;25.10;1.00;;;;;;5025939;28;20428;-76
2022/06/20 00:24:38;;;;;;;17.30;8.10;;;25.30;1.00;;;;;;5027706;28;20858;-76
2022/06/20 00:27:06;;;;;;;14.90;8.27;;;25.00;1.00;;;;;;5023994;28;20194;-76
2022/06/20 00:29:41;;;;;;;13.80;8.20;;;24.90;1.00;;;;;;5028993;28;20647;-76
2022/06/20 00:32:08;;;;;;;15.17;8.20;;;24.90;1.00;;;;;;5026957;28;20432;-76
2022/06/20 00:34:34;;;;;;;16.23;7.40;;;25.00;1.00;;;;;;5026401;28;20944;-76
2022/06/20 00:37:01;;;;;;;17.80;7.83;;;24.90;1.00;;;;;;5028175;28;20443;-76
2022/06/20 00:39:26;;;;;;;23.60;7.87;;;24.80;1.00;;;;;;5029690;28;20507;-76
2022/06/20 00:41:53;;;;;;;17.70;8.07;;;24.80;1.00;;;;;;5027172;28;20997;-76
2022/06/20 00:44:30;;;;;;;12.20;7.60;;;24.80;1.00;;;;;;5023927;28;20208;-76
2022/06/20 00:47:01;;;;;;;14.80;7.37;;;24.70;1.00;;;;;;5022119;28;20842;-76
2022/06/20 00:49:45;;;;;;;16.27;7.40;;;24.70;1.00;;;;;;5021053;28;20839;-76
2022/06/20 00:52:29;;;;;;;14.40;7.30;;;24.60;1.00;;;;;;5018855;28;20446;-76
2022/06/20 00:55:01;;;;;;;11.47;6.90;;;24.50;1.00;;;;;;5029876;28;20424;-76
2022/06/20 00:57:41;;;;;;;15.10;7.97;;;24.50;1.00;;;;;;5024685;28;20424;-76
2022/06/20 01:00:21;;;;;;;14.40;7.27;;;24.50;1.00;;;;;;5024696;28;20510;-76
2022/06/20 01:02:50;;;;;;;14.83;7.60;;;24.30;1.00;;;;;;5024869;28;20614;-76
2022/06/20 01:05:23;;;;;;;12.80;7.20;;;24.20;1.00;;;;;;5028447;28;20468;-76
2022/06/20 01:08:05;;;;;;;14.53;8.13;;;24.10;1.00;;;;;;5027086;28;20538;-76
2022/06/20 01:10:42;;;;;;;10.67;7.10;;;24.10;1.00;;;;;;5022148;28;20436;-76
2022/06/20 01:13:14;;;;;;;17.23;7.77;;;24.10;1.00;;;;;;5017079;28;20455;-76
2022/06/20 01:15:42;;;;;;;14.20;7.90;;;24.10;1.00;;;;;;5025439;28;20420;-76
2022/06/20 01:18:17;;;;;;;18.10;7.63;;;24.10;1.00;;;;;;5013629;28;20813;-75
2022/06/20 01:20:46;;;;;;;13.23;7.70;;;24.00;1.00;;;;;;5023098;28;20439;-76
2022/06/20 01:23:31;;;;;;;13.47;7.87;;;23.90;1.00;;;;;;5026282;28;20555;-76
2022/06/20 01:26:39;;;;;;;18.27;8.70;;;23.80;1.00;;;;;;5026607;28;20432;-76
2022/06/20 01:29:08;;;;;;;14.50;8.00;;;23.70;1.00;;;;;;5025736;28;20463;-76
2022/06/20 01:31:40;;;;;;;22.40;8.97;;;23.60;1.00;;;;;;5023389;28;20450;-76
2022/06/20 01:34:06;;;;;;;12.33;7.63;;;23.50;1.00;;;;;;5018874;28;20465;-76
2022/06/20 01:39:22;;;;;;;12.00;7.83;;;23.40;1.00;;;;;;5017717;28;20439;-76
2022/06/20 01:44:37;;;;;;;16.67;8.63;;;23.30;1.00;;;;;;5018904;28;20513;-76
2022/06/20 01:47:03;;;;;;;17.23;7.83;;;23.30;1.00;;;;;;5020650;28;20575;-76
2022/06/20 01:49:32;;;;;;;11.97;8.40;;;23.30;1.00;;;;;;5020932;28;20951;-76
2022/06/20 01:52:08;;;;;;;13.87;7.77;;;23.30;1.00;;;;;;5022693;28;20418;-76
2022/06/20 01:54:39;;;;;;;12.43;7.80;;;23.40;1.00;;;;;;5020624;28;20424;-76
2022/06/20 01:57:08;;;;;;;13.37;7.80;;;23.40;1.00;;;;;;5024038;28;20607;-76
2022/06/20 01:59:50;;;;;;;15.70;7.73;;;23.40;1.00;;;;;;5017273;28;21001;-75
2022/06/20 02:02:17;;;;;;;14.40;6.60;;;23.50;1.00;;;;;;5019819;28;20798;-76
2022/06/20 02:04:44;;;;;;;8.57;5.97;;;23.50;1.00;;;;;;5027057;28;20490;-76
2022/06/20 02:07:11;;;;;;;13.30;6.80;;;23.60;1.00;;;;;;5019898;28;20434;-75
2022/06/20 02:09:39;;;;;;;10.73;6.53;;;23.60;1.00;;;;;;5027825;28;20440;-76
2022/06/20 02:12:06;;;;;;;12.90;6.23;;;24.10;1.00;;;;;;5024999;28;20432;-75
2022/06/20 02:14:48;;;;;;;14.40;6.20;;;23.50;1.00;;;;;;5020945;28;20460;-75
2022/06/20 02:17:21;;;;;;;11.73;6.33;;;23.30;1.00;;;;;;5024688;28;20473;-75
2022/06/20 02:19:51;;;;;;;11.03;5.70;;;23.30;1.00;;;;;;5018427;28;20436;-75
2022/06/20 02:22:19;;;;;;;12.90;5.10;;;23.20;1.00;;;;;;5023225;28;20416;-75
2022/06/20 02:24:50;;;;;;;11.93;5.30;;;23.10;1.00;;;;;;5023868;28;20457;-75
2022/06/20 02:27:24;;;;;;;12.40;5.17;;;23.00;1.00;;;;;;5019073;28;20447;-75
2022/06/20 02:29:49;;;;;;;9.33;4.80;;;22.90;1.00;;;;;;5014659;28;20452;-75
2022/06/20 02:32:19;;;;;;;12.87;5.10;;;22.90;1.00;;;;;;5020870;28;20455;-75
2022/06/20 02:34:45;;;;;;;12.10;4.87;;;22.90;1.00;;;;;;5024266;28;20196;-74
2022/06/20 02:37:17;;;;;;;11.17;4.80;;;22.80;1.00;;;;;;5016268;28;20432;-75
2022/06/20 02:39:44;;;;;;;13.87;5.03;;;22.70;1.00;;;;;;5018969;28;20423;-75
2022/06/20 02:42:25;;;;;;;9.10;4.50;;;22.70;1.00;;;;;;5022229;28;20436;-75
2022/06/20 02:44:52;;;;;;;12.13;4.43;;;22.60;1.00;;;;;;5018313;28;20456;-75
2022/06/20 02:47:19;;;;;;;12.10;4.90;;;22.60;1.00;;;;;;5008743;28;20784;-75
2022/06/20 02:49:46;;;;;;;13.00;4.40;;;22.60;1.00;;;;;;5022702;28;20753;-75
2022/06/20 02:52:19;;;;;;;11.27;4.83;;;22.60;1.00;;;;;;5026133;28;20953;-76
2022/06/20 02:54:47;;;;;;;14.77;5.53;;;22.50;1.00;;;;;;5025956;28;20549;-76
2022/06/20 02:57:35;;;;;;;10.70;5.40;;;22.50;1.00;;;;;;5032343;28;20483;-75
2022/06/20 03:00:04;;;;;;;19.33;4.70;;;22.50;1.00;;;;;;5027890;28;20450;-75
2022/06/20 03:02:35;;;;;;;9.83;4.97;;;22.40;1.00;;;;;;5030990;28;20530;-76
2022/06/20 03:05:01;;;;;;;15.10;6.10;;;22.30;1.00;;;;;;5023519;28;20526;-76
2022/06/20 03:07:30;;;;;;;9.50;4.37;;;22.30;1.00;;;;;;5032981;28;20439;-76
2022/06/20 03:10:02;;;;;;;8.07;4.63;;;22.30;1.00;;;;;;5033743;28;20484;-76
2022/06/20 03:12:28;;;;;;;16.30;6.30;;;22.30;1.00;;;;;;5015346;28;20483;-75
2022/06/20 03:14:59;;;;;;;10.00;5.00;;;22.20;1.00;;;;;;5032345;28;20918;-75
2022/06/20 03:17:24;;;;;;;8.97;4.70;;;22.10;1.00;;;;;;5018936;28;20182;-75
2022/06/20 03:19:58;;;;;;;10.50;5.20;;;22.10;1.00;;;;;;5024980;28;20482;-75
2022/06/20 03:22:29;;;;;;;12.07;4.27;;;22.10;1.00;;;;;;5014915;28;20178;-75
2022/06/20 03:24:55;;;;;;;13.53;4.60;;;22.10;1.00;;;;;;5032312;28;20479;-75
2022/06/20 03:27:30;;;;;;;16.90;4.50;;;22.10;1.00;;;;;;5030608;28;20497;-76
2022/06/20 03:30:01;;;;;;;11.83;4.57;;;22.10;1.00;;;;;;5029079;28;20513;-75
2022/06/20 03:32:27;;;;;;;10.20;4.13;;;22.10;1.00;;;;;;5030859;28;20460;-76
2022/06/20 03:34:53;;;;;;;8.13;4.33;;;22.10;1.00;;;;;;5027620;28;21173;-76
2022/06/20 03:37:20;;;;;;;12.40;4.70;;;22.00;1.00;;;;;;5020849;28;20599;-75
2022/06/20 03:39:48;;;;;;;9.10;4.63;;;22.00;1.00;;;;;;5032272;28;20878;-76
2022/06/20 03:42:14;;;;;;;9.20;4.20;;;22.00;1.00;;;;;;5031071;28;20434;-75
2022/06/20 03:44:46;;;;;;;7.30;4.10;;;22.00;1.00;;;;;;5031988;28;20503;-76
2022/06/20 03:47:40;;;;;;;12.77;4.90;;;21.90;1.00;;;;;;5027409;28;20479;-76
2022/06/20 03:50:19;;;;;;;8.83;4.40;;;21.90;1.00;;;;;;5018641;28;20949;-75
2022/06/20 03:52:53;;;;;;;8.27;4.70;;;21.90;1.00;;;;;;5027844;28;20848;-75
2022/06/20 03:55:31;;;;;;;10.17;4.23;;;21.90;1.00;;;;;;5033019;28;20414;-75
2022/06/20 03:58:11;;;;;;;11.33;5.63;;;21.90;1.00;;;;;;5024312;28;20484;-75
2022/06/20 04:00:45;;;;;;;8.67;4.20;;;21.90;1.00;;;;;;5019977;28;20425;-76
2022/06/20 04:03:18;;;;;;;9.13;4.93;;;21.90;1.00;;;;;;5031466;28;20992;-76
2022/06/20 04:05:47;;;;;;;10.07;4.43;;;22.00;1.00;;;;;;5023848;28;20448;-75
2022/06/20 04:08:22;;;;;;;9.90;4.87;;;22.10;1.00;;;;;;5022606;28;20444;-75
2022/06/20 04:11:01;;;;;;;9.70;5.20;;;22.20;1.00;;;;;;5016194;28;20442;-75
2022/06/20 04:13:48;;;;;;;10.70;4.87;;;22.20;1.00;;;;;;5029904;28;20462;-75
2022/06/20 04:16:24;;;;;;;8.83;4.67;;;22.30;1.00;;;;;;5014278;28;20907;-75
2022/06/20 04:19:10;;;;;;;11.53;4.83;;;22.30;1.00;;;;;;5010300;28;20464;-75
2022/06/20 04:22:19;;;;;;;12.20;4.10;;;22.40;1.00;;;;;;5022918;28;20441;-76
2022/06/20 04:25:14;;;;;;;10.30;4.47;;;22.40;1.00;;;;;;5023288;28;20521;-75
2022/06/20 04:27:48;;;;;;;10.47;4.33;;;22.60;1.00;;;;;;5014182;28;20506;-75
2022/06/20 04:30:28;;;;;;;9.80;4.10;;;22.60;1.00;;;;;;5024195;28;20423;-75
2022/06/20 04:33:11;;;;;;;8.40;4.40;;;22.70;1.00;;;;;;5028467;28;20546;-75
2022/06/20 04:35:43;;;;;;;11.47;4.63;;;22.80;1.00;;;;;;5018367;28;20436;-75
2022/06/20 04:38:23;;;;;;;12.87;4.60;;;22.90;1.00;;;;;;5029364;28;20518;-75
2022/06/20 04:41:05;;;;;;;10.30;4.07;;;22.90;1.00;;;;;;5024313;28;20440;-75
2022/06/20 04:43:37;;;;;;;13.30;4.50;;;23.00;1.00;;;;;;5018721;28;20460;-75
2022/06/20 04:46:14;;;;;;;14.10;4.40;;;23.10;1.00;;;;;;5017671;28;20431;-75
2022/06/20 04:48:40;;;;;;;10.23;5.00;;;23.30;1.00;;;;;;5013530;28;20444;-76
2022/06/20 04:51:08;;;;;;;13.03;5.27;;;23.40;1.00;;;;;;5023988;28;20498;-75
2022/06/20 04:53:38;;;;;;;6.97;4.27;;;23.40;1.00;;;;;;5016340;28;20193;-75
2022/06/20 04:56:06;;;;;;;10.90;4.10;;;23.50;1.00;;;;;;5023287;28;20493;-75
2022/06/20 04:58:53;;;;;;;8.80;4.90;;;23.50;1.00;;;;;;5023330;28;20495;-75
2022/06/20 05:01:20;;;;;;;8.30;4.10;;;23.40;1.00;;;;;;5029925;28;20484;-75
2022/06/20 05:03:55;;;;;;;9.10;4.60;;;23.30;1.00;;;;;;5024278;28;20546;-76
2022/06/20 05:06:24;;;;;;;7.73;4.53;;;23.10;1.00;;;;;;5029527;28;20446;-75
2022/06/20 05:08:54;;;;;;;9.00;4.57;;;23.00;1.00;;;;;;5024240;28;20459;-75
2022/06/20 05:11:37;;;;;;;13.53;5.30;;;23.00;1.00;;;;;;5029234;28;20849;-75
2022/06/20 05:14:31;;;;;;;14.30;5.13;;;23.00;1.00;;;;;;5019056;28;20550;-76
2022/06/20 05:16:57;;;;;;;11.23;4.70;;;23.00;1.00;;;;;;5029245;28;21021;-75
2022/06/20 05:19:25;;;;;;;12.60;4.87;;;23.00;1.00;;;;;;5021652;28;20470;-75
2022/06/20 05:21:55;;;;;;;16.80;4.87;;;23.00;1.00;;;;;;5025005;28;20848;-75
2022/06/20 05:24:24;;;;;;;12.57;4.97;;;23.10;1.00;;;;;;5027484;28;20436;-75
2022/06/20 05:26:52;;;;;;;13.17;4.80;;;23.20;1.00;;;;;;5024718;28;20848;-75
2022/06/20 05:29:27;;;;;;;9.07;5.10;;;23.20;1.00;;;;;;5021560;28;21015;-74
2022/06/20 05:31:56;;;;;;;8.53;4.83;;;23.10;1.00;;;;;;5037454;28;20426;-74
2022/06/20 05:34:25;;;;;;;13.80;5.63;;;23.10;1.00;;;;;;5014170;28;21033;-74
2022/06/20 05:37:11;;;;;;;11.10;5.03;;;23.10;1.00;;;;;;5022782;28;20431;-74
2022/06/20 05:39:59;;;;;;;13.53;4.90;;;23.30;1.00;;;;;;5024135;28;21024;-74
2022/06/20 05:42:25;;;;;;;8.17;4.53;;;23.30;1.00;;;;;;5024558;28;20443;-74
2022/06/20 05:44:51;;;;;;;6.83;4.40;;;23.20;1.00;;;;;;5012304;28;20445;-74
2022/06/20 05:47:30;;;;;;;15.20;4.87;;;23.10;1.00;;;;;;5019066;28;20205;-74
2022/06/20 05:50:22;;;;;;;7.27;4.80;;;23.20;1.00;;;;;;5024939;28;20659;-75
2022/06/20 05:52:50;;;;;;;8.47;4.30;;;23.40;1.00;;;;;;5022464;28;20460;-74
2022/06/20 05:55:21;;;;;;;10.80;4.77;;;23.50;1.00;;;;;;5011949;28;20440;-74
2022/06/20 05:57:50;;;;;;;12.13;5.13;;;23.50;1.00;;;;;;5023372;28;20550;-74
2022/06/20 06:00:18;;;;;;;9.17;4.57;;;23.60;1.00;;;;;;5021020;28;20440;-74
2022/06/20 06:02:49;;;;;;;10.50;4.53;;;23.80;1.00;;;;;;5022568;28;20448;-74
2022/06/20 06:05:18;;;;;;;7.93;4.47;;;24.00;1.00;;;;;;5007909;28;20437;-74
2022/06/20 06:08:20;;;;;;;11.93;4.70;;;24.30;1.00;;;;;;5021665;28;20531;-74
2022/06/20 06:10:54;;;;;;;10.67;4.37;;;24.50;1.00;;;;;;5018607;28;20454;-75
2022/06/20 06:13:33;;;;;;;8.63;4.80;;;24.70;1.00;;;;;;5020178;28;20488;-74
2022/06/20 06:16:46;;;;;;;7.30;5.10;;;24.60;1.00;;;;;;5015531;28;20435;-74
2022/06/20 06:19:28;;;;;;;10.17;5.03;;;24.70;1.00;;;;;;5026517;28;20941;-74
2022/06/20 06:21:55;;;;;;;12.70;5.10;;;24.70;1.00;;;;;;5015844;28;20448;-74
2022/06/20 06:24:24;;;;;;;9.77;4.30;;;24.70;1.00;;;;;;5020855;28;20447;-75
2022/06/20 06:26:54;;;;;;;9.10;4.30;;;24.70;1.00;;;;;;5012217;28;20432;-74
2022/06/20 06:29:24;;;;;;;12.17;4.57;;;24.80;1.00;;;;;;5022183;28;20527;-74
2022/06/20 06:31:56;;;;;;;7.87;4.33;;;24.70;1.00;;;;;;5019341;28;20469;-74
2022/06/20 06:34:30;;;;;;;26.67;5.07;;;24.50;1.00;;;;;;5023210;28;20554;-74
2022/06/20 06:37:02;;;;;;;15.20;5.27;;;24.50;1.00;;;;;;5026325;28;20797;-75
2022/06/20 06:39:36;;;;;;;15.83;5.57;;;24.60;1.00;;;;;;5026588;28;20456;-74
2022/06/20 06:42:04;;;;;;;12.03;4.90;;;24.70;1.00;;;;;;5018985;28;20968;-74
2022/06/20 06:44:42;;;;;;;14.33;4.40;;;24.80;1.00;;;;;;5025912;28;20522;-74
2022/06/20 06:47:25;;;;;;;12.47;5.20;;;24.70;1.00;;;;;;5024680;28;20447;-74
2022/06/20 06:49:57;;;;;;;17.13;5.40;;;24.60;1.00;;;;;;5021227;28;20448;-74
2022/06/20 06:52:33;;;;;;;13.23;5.80;;;24.50;1.00;;;;;;5026238;28;21348;-75
2022/06/20 06:55:10;;;;;;;10.20;4.70;;;24.40;1.00;;;;;;5010923;28;20439;-74
2022/06/20 06:57:44;;;;;;;8.60;4.67;;;24.20;1.00;;;;;;5022320;28;20547;-74
2022/06/20 07:00:19;;;;;;;9.23;4.67;;;24.20;1.00;;;;;;5025389;28;20467;-74
2022/06/20 07:02:52;;;;;;;9.67;4.90;;;24.40;1.00;;;;;;5031903;28;20447;-74
2022/06/20 07:05:36;;;;;;;13.17;5.37;;;24.80;1.00;;;;;;5027104;28;20413;-75
2022/06/20 07:08:19;;;;;;;9.40;5.03;;;24.60;1.00;;;;;;5022777;28;20447;-74
2022/06/20 07:10:56;;;;;;;22.97;7.53;;;24.80;1.00;;;;;;5027124;28;20436;-75
2022/06/20 07:13:32;;;;;;;12.13;5.07;;;24.90;1.00;;;;;;5024370;28;20463;-74
2022/06/20 07:16:01;;;;;;;14.83;4.70;;;25.10;1.00;;;;;;5026944;28;20988;-74
2022/06/20 07:18:42;;;;;;;10.30;5.40;;;25.20;1.00;;;;;;5023232;28;20467;-74
2022/06/20 07:21:15;;;;;;;10.73;4.50;;;25.20;1.00;;;;;;5026856;28;20415;-75
2022/06/20 07:23:42;;;;;;;11.70;5.10;;;25.20;1.00;;;;;;5025228;28;20457;-74
2022/06/20 07:26:10;;;;;;;9.87;4.80;;;25.30;1.00;;;;;;5023088;28;20444;-74
2022/06/20 07:28:41;;;;;;;9.63;4.57;;;25.40;1.00;;;;;;5014204;28;20510;-74
2022/06/20 07:31:26;;;;;;;9.27;4.20;;;25.60;1.00;;;;;;5021260;28;20423;-75
2022/06/20 07:33:56;;;;;;;14.50;4.87;;;25.90;1.00;;;;;;5017164;28;20467;-75
2022/06/20 07:36:27;;;;;;;7.27;4.20;;;26.00;1.00;;;;;;5027526;28;20858;-75
2022/06/20 07:38:59;;;;;;;14.10;5.53;;;26.20;1.00;;;;;;5023804;28;20495;-76
2022/06/20 07:41:32;;;;;;;10.87;4.53;;;26.70;1.00;;;;;;5021418;28;20478;-77
2022/06/20 07:44:10;;;;;;;14.40;4.97;;;27.30;1.00;;;;;;5029172;28;20422;-77
2022/06/20 07:46:41;;;;;;;13.70;4.80;;;27.50;1.00;;;;;;5019258;28;20196;-78
2022/06/20 07:49:15;;;;;;;13.87;5.07;;;27.70;1.00;;;;;;5024441;28;20205;-77
2022/06/20 07:51:45;;;;;;;13.47;4.93;;;27.70;1.00;;;;;;5024167;28;20189;-77
2022/06/20 07:54:29;;;;;;;13.67;4.70;;;27.90;1.00;;;;;;5022991;28;20236;-77
2022/06/20 07:57:17;;;;;;;13.60;4.60;;;28.10;1.00;;;;;;5031441;28;20807;-77
2022/06/20 07:59:53;;;;;;;11.33;4.10;;;28.40;1.00;;;;;;5025188;28;20192;-77
2022/06/20 08:02:22;;;;;;;11.90;4.40;;;28.70;1.00;;;;;;5022461;28;20174;-79
2022/06/20 08:04:52;;;;;;;10.33;4.50;;;29.00;1.00;;;;;;5017736;28;20182;-77
2022/06/20 08:07:23;;;;;;;8.57;4.10;;;29.00;1.00;;;;;;5030242;28;20172;-77
2022/06/20 08:10:01;;;;;;;9.37;4.03;;;29.20;1.00;;;;;;5031388;28;20170;-76
2022/06/20 08:12:38;;;;;;;8.50;4.20;;;29.50;1.00;;;;;;5017999;28;20178;-80
2022/06/20 08:15:11;;;;;;;9.93;4.90;;;29.40;1.00;;;;;;5027336;28;20188;-78
2022/06/20 08:17:37;;;;;;;14.25;4.57;;;29.70;1.00;;;;;;5014182;28;20205;-76
2022/06/20 08:20:04;;;;;;;11.80;4.53;;;29.80;1.00;;;;;;5019988;28;20194;-77
2022/06/20 08:22:52;;;;;;;16.40;4.63;;;29.60;1.00;;;;;;5009504;28;20184;-74
2022/06/20 08:25:22;;;;;;;13.40;4.20;;;29.20;1.00;;;;;;5026255;28;20189;-74
2022/06/20 08:28:00;;;;;;;17.80;4.77;;;28.60;1.00;;;;;;5021895;28;20347;-75
2022/06/20 08:30:41;;;;;;;11.77;4.80;;;28.20;1.00;;;;;;5033628;28;20177;-74
2022/06/20 08:33:18;;;;;;;13.03;4.30;;;27.70;1.00;;;;;;5010402;28;20206;-74
2022/06/20 08:35:52;;;;;;;22.40;4.70;;;27.70;1.00;;;;;;5010713;28;20161;-74
2022/06/20 08:38:29;;;;;;;11.00;4.83;;;28.30;1.00;;;;;;5012506;28;20197;-75
2022/06/20 08:41:09;;;;;;;12.10;4.73;;;28.90;1.00;;;;;;5029119;28;20180;-74
2022/06/20 08:43:45;;;;;;;14.50;4.73;;;29.20;1.00;;;;;;5030754;28;20640;-75
2022/06/20 08:46:30;;;;;;;16.40;5.00;;;28.80;1.00;;;;;;5015894;28;20185;-75
2022/06/20 08:49:19;;;;;;;11.93;4.50;;;28.40;1.00;;;;;;5024766;28;20291;-74
2022/06/20 08:52:06;;;;;;;12.93;4.40;;;28.30;1.00;;;;;;5026669;28;20723;-74
2022/06/20 08:54:47;;;;;;;9.30;4.40;;;28.30;1.00;;;;;;5019387;28;20200;-75
2022/06/20 08:57:24;;;;;;;9.23;4.10;;;28.40;1.00;;;;;;5024390;28;20188;-75
2022/06/20 09:00:09;;;;;;;7.70;4.03;;;28.40;1.00;;;;;;5023475;28;20176;-74
2022/06/20 09:02:50;;;;;;;9.73;4.10;;;28.50;1.00;;;;;;5030303;28;20174;-75
2022/06/20 09:05:19;;;;;;;12.87;4.60;;;28.40;1.00;;;;;;5025059;28;20199;-76
2022/06/20 09:07:54;;;;;;;8.93;4.20;;;28.60;1.00;;;;;;5015868;28;20194;-77
2022/06/20 09:10:32;;;;;;;9.07;4.30;;;28.70;1.00;;;;;;5010227;28;20227;-75
2022/06/20 09:13:06;;;;;;;8.60;4.03;;;28.70;1.00;;;;;;5015758;28;20231;-76
2022/06/20 09:15:48;;;;;;;15.40;4.57;;;29.20;1.00;;;;;;5030744;28;20172;-76
2022/06/20 09:18:24;;;;;;;8.65;4.35;;;30.10;1.00;;;;;;5030400;28;20189;-76
2022/06/20 09:21:02;;;;;;;8.93;4.65;;;30.90;1.00;;;;;;5021778;28;20200;-76
2022/06/20 09:24:10;;;;;;;18.42;4.70;;;31.90;1.00;;;;;;5027123;28;20219;-76
2022/06/20 09:26:44;;;;;;;11.18;4.43;;;33.40;1.00;;;;;;5014450;28;20688;-76
2022/06/20 09:29:21;;;;;;;9.45;4.15;;;32.80;1.00;;;;;;5020363;28;20746;-76
2022/06/20 09:32:08;;;;;;;9.43;4.25;;;31.90;1.00;;;;;;5039699;28;20279;-76
2022/06/20 09:35:15;;;;;;;8.05;4.20;;;31.30;1.00;;;;;;5037412;28;20276;-76
2022/06/20 09:38:06;;;;;;;11.40;4.53;;;30.50;1.00;;;;;;5024746;28;20213;-76
2022/06/20 09:40:41;;;;;;;9.85;3.90;;;30.40;1.00;;;;;;5030382;28;20656;-76
2022/06/20 09:43:35;;;;;;;12.52;4.40;;;30.10;1.00;;;;;;5029762;28;20552;-75
2022/06/20 09:46:20;;;;;;;12.50;4.32;;;29.40;1.00;;;;;;5009611;28;20166;-75
2022/06/20 09:48:58;;;;;;;9.18;4.35;;;29.00;1.00;;;;;;5011689;28;20217;-75
2022/06/20 09:52:02;;;;;;;9.50;4.03;;;28.60;1.00;;;;;;5027878;28;20266;-75
2022/06/20 09:54:53;;;;;;;12.37;4.40;;;28.30;1.00;;;;;;5026968;28;20548;-75
2022/06/20 09:57:46;;;;;;;10.87;3.90;;;28.40;1.00;;;;;;5023255;28;20181;-75
2022/06/20 10:00:20;;;;;;;19.63;4.70;;;28.50;1.00;;;;;;5033861;28;20169;-75
2022/06/20 10:03:20;;;;;;;13.40;5.03;;;28.30;1.00;;;;;;5046950;28;20282;-75
2022/06/20 10:06:05;;;;;;;13.97;6.13;;;28.70;1.00;;;;;;5025199;28;20275;-75
2022/06/20 10:08:57;;;;;;;12.50;6.90;;;29.20;1.00;;;;;;5028984;28;20200;-76
2022/06/20 10:11:34;;;;;;;14.77;5.97;;;29.40;1.00;;;;;;5025848;28;20181;-76
2022/06/20 10:14:04;;;;;;;12.50;6.53;;;29.70;1.00;;;;;;5012404;28;20204;-76
2022/06/20 10:16:36;;;;;;;12.15;6.78;;;29.20;1.00;;;;;;5008936;28;20182;-76
2022/06/20 10:19:25;;;;;;;12.73;6.07;;;28.90;1.00;;;;;;5014312;28;20212;-75
2022/06/20 10:22:09;;;;;;;9.30;6.13;;;29.20;1.00;;;;;;5024273;28;20537;-76
2022/06/20 10:25:25;;;;;;;13.77;6.18;;;30.10;1.00;;;;;;5023660;28;20181;-76
2022/06/20 10:28:12;;;;;;;11.95;6.85;;;30.60;1.00;;;;;;4995812;28;20504;-76
2022/06/20 10:30:54;;;;;;;11.45;6.82;;;31.10;1.00;;;;;;5034799;28;20181;-76
2022/06/20 10:33:31;;;;;;;12.70;6.78;;;31.70;1.00;;;;;;5047265;28;20552;-76
2022/06/20 10:36:24;;;;;;;28.85;6.05;;;32.00;1.00;;;;;;5032825;28;20177;-76
2022/06/20 10:39:11;;;;;;;11.50;5.80;;;32.30;1.00;;;;;;5025268;28;20280;-76
2022/06/20 10:41:52;;;;;;;11.80;5.32;;;32.20;1.00;;;;;;5028407;28;20540;-76
2022/06/20 10:44:27;;;;;;;11.13;5.70;;;32.90;1.00;;;;;;5027308;28;20248;-76
2022/06/20 10:46:52;;;;;;;14.10;5.85;;;32.90;1.00;;;;;;5024793;28;20216;-76
2022/06/20 10:49:46;;;;;;;9.70;5.50;;;32.10;1.00;;;;;;5021021;28;20225;-76
2022/06/20 10:52:38;;;;;;;12.23;5.00;;;31.60;1.00;;;;;;5019631;28;20173;-76
2022/06/20 10:55:24;;;;;;;10.93;4.47;;;31.50;1.00;;;;;;5028177;28;20239;-76
2022/06/20 10:58:01;;;;;;;6.05;4.47;;;32.80;1.00;;;;;;5028491;28;20196;-76
2022/06/20 11:00:29;;;;;;;10.77;4.70;;;32.60;1.00;;;;;;5031612;28;20181;-77
2022/06/20 11:03:31;;;;;;;6.43;4.50;;;31.80;1.00;;;;;;5037737;28;20240;-76
2022/06/20 11:06:21;;;;;;;6.50;4.30;;;31.20;1.00;;;;;;5009467;28;20742;-82
2022/06/20 11:09:03;;;;;;;11.07;4.05;;;31.00;1.00;;;;;;5024357;28;20209;-81
2022/06/20 11:11:40;;;;;;;6.88;4.05;;;30.80;1.00;;;;;;5013144;28;20283;-81
2022/06/20 11:14:18;;;;;;;6.30;4.25;;;30.70;1.00;;;;;;5014999;28;20330;-81
2022/06/20 11:16:51;;;;;;;15.10;4.55;;;31.00;1.00;;;;;;5025662;28;20184;-75
2022/06/20 11:19:51;;;;;;;10.35;3.80;;;31.10;1.00;;;;;;5020399;28;20204;-76
2022/06/20 11:22:24;;;;;;;13.95;4.07;;;31.00;1.00;;;;;;5011449;28;20174;-76
2022/06/20 11:25:15;;;;;;;20.55;4.32;;;30.80;1.00;;;;;;5012805;28;20332;-76
2022/06/20 11:28:08;;;;;;;7.68;3.55;;;29.90;1.00;;;;;;5013001;28;20400;-76
2022/06/20 11:30:54;;;;;;;15.07;3.58;;;29.50;1.00;;;;;;5044069;28;20235;-76
2022/06/20 11:36:38;;;;;;;6.80;3.30;;;29.00;1.00;;;;;;5012379;28;20172;-76
2022/06/20 11:39:27;;;;;;;5.10;3.20;;;29.10;1.00;;;;;;5012415;28;20265;-76
2022/06/20 11:41:57;;;;;;;10.02;3.38;;;29.50;1.00;;;;;;5010938;28;20272;-76
2022/06/20 11:44:57;;;;;;;8.45;3.10;;;31.20;1.00;;;;;;5018971;28;20192;-77
2022/06/20 11:47:44;;;;;;;9.48;3.25;;;32.60;1.00;;;;;;5032075;28;20197;-76
2022/06/20 11:50:19;;;;;;;7.40;2.92;;;32.80;1.00;;;;;;5022588;28;20765;-76
2022/06/20 11:52:58;;;;;;;4.75;2.85;;;34.00;1.00;;;;;;5028497;28;20501;-77
2022/06/20 11:55:56;;;;;;;13.45;5.30;;;34.90;1.00;;;;;;5015929;28;20178;-77
2022/06/20 11:58:56;;;;;;;4.60;2.63;;;32.90;1.00;;;;;;5013869;28;20186;-76
2022/06/20 12:01:27;;;;;;;3.50;2.65;;;31.80;1.00;;;;;;5030013;28;20173;-77
2022/06/20 12:03:59;;;;;;;4.00;3.00;;;31.70;1.00;;;;;;5017186;28;20189;-77
2022/06/20 12:06:52;;;;;;;9.85;2.80;;;31.80;1.00;;;;;;5011169;28;20179;-76
2022/06/20 12:09:57;;;;;;;3.58;2.90;;;31.50;1.00;;;;;;5022119;28;20608;-76
2022/06/20 12:12:43;;;;;;;6.85;3.10;;;31.00;1.00;;;;;;5014724;28;20316;-76
2022/06/20 12:15:37;;;;;;;4.13;2.92;;;31.10;1.00;;;;;;5023866;28;20258;-76
2022/06/20 12:18:11;;;;;;;10.25;3.63;;;30.90;1.00;;;;;;5010455;28;20522;-76
2022/06/20 12:23:33;;;;;;;5.15;2.88;;;29.90;1.00;;;;;;5010774;28;20204;-76
2022/06/20 12:26:17;;;;;;;4.78;2.80;;;29.70;1.00;;;;;;5018421;28;20177;-76
2022/06/20 12:28:46;;;;;;;5.53;2.95;;;29.90;1.00;;;;;;5022950;28;20221;-76
2022/06/20 12:31:17;;;;;;;7.13;3.00;;;29.80;1.00;;;;;;5038992;28;20181;-76
2022/06/20 12:33:57;;;;;;;3.85;2.97;;;29.50;1.00;;;;;;5031259;28;20284;-76
2022/06/20 12:36:38;;;;;;;3.88;3.20;;;29.40;1.00;;;;;;5029215;28;20656;-76
2022/06/20 12:39:21;;;;;;;4.18;3.05;;;29.90;1.00;;;;;;5029695;28;20287;-76
2022/06/20 12:41:52;;;;;;;5.43;3.25;;;29.90;1.00;;;;;;5030589;28;20184;-77
2022/06/20 12:44:53;;;;;;;7.70;2.70;;;29.90;1.00;;;;;;5029954;28;20602;-76
2022/06/20 12:47:45;;;;;;;3.70;2.60;;;30.20;1.00;;;;;;5011489;28;20256;-76
2022/06/20 12:50:11;;;;;;;3.83;2.63;;;30.80;1.00;;;;;;5023805;28;20551;-76
2022/06/20 12:52:53;;;;;;;6.45;3.03;;;31.90;1.00;;;;;;5029391;28;20189;-76
2022/06/20 12:55:40;;;;;;;5.15;2.72;;;32.20;1.00;;;;;;5028749;28;20177;-76
2022/06/20 12:58:14;;;;;;;4.35;2.67;;;31.40;1.00;;;;;;5030900;28;20327;-77
2022/06/20 13:00:59;;;;;;;10.00;2.90;;;31.10;1.00;;;;;;5038586;28;20164;-76
2022/06/20 13:03:39;;;;;;;4.70;2.80;;;31.60;1.00;;;;;;5016830;28;20181;-76
2022/06/20 13:06:26;;;;;;;6.47;3.30;;;31.80;1.00;;;;;;5023251;28;20220;-76
2022/06/20 13:09:09;;;;;;;5.75;3.25;;;32.50;1.00;;;;;;5029171;28;20600;-77
2022/06/20 13:11:53;;;;;;;3.55;2.85;;;33.20;1.00;;;;;;5026773;28;20177;-77
2022/06/20 13:14:56;;;;;;;4.68;2.85;;;33.30;1.00;;;;;;5030164;28;20201;-77
2022/06/20 13:17:47;;;;;;;4.03;2.80;;;32.40;1.00;;;;;;5030428;28;20191;-77
2022/06/20 13:20:40;;;;;;;6.03;3.33;;;31.40;1.00;;;;;;5016320;28;20185;-75
2022/06/20 13:23:40;;;;;;;5.88;2.92;;;31.00;1.00;;;;;;5011138;28;20616;-74
2022/06/20 13:26:29;;;;;;;5.88;3.20;;;30.80;1.00;;;;;;5030955;28;20181;-75
2022/06/20 13:29:09;;;;;;;10.18;3.45;;;30.30;1.00;;;;;;5030216;28;20508;-74
2022/06/20 13:31:39;;;;;;;5.25;3.17;;;29.90;1.00;;;;;;5041688;28;20168;-74
2022/06/20 13:34:17;;;;;;;6.18;3.03;;;29.70;1.00;;;;;;5039641;28;20204;-74
2022/06/20 13:36:59;;;;;;;6.65;3.40;;;28.90;1.00;;;;;;5016315;28;20177;-74
2022/06/20 13:39:30;;;;;;;4.45;3.42;;;28.30;1.00;;;;;;5023254;28;20201;-74
2022/06/20 13:42:37;;;;;;;8.93;3.47;;;28.50;1.00;;;;;;5029566;28;20294;-74
2022/06/20 13:45:24;;;;;;;4.07;2.97;;;29.10;1.00;;;;;;5028665;28;20177;-74
2022/06/20 13:48:06;;;;;;;5.10;3.00;;;28.70;1.00;;;;;;5020947;28;20463;-74
2022/06/20 13:50:41;;;;;;;5.23;3.03;;;28.20;1.00;;;;;;5016675;28;20177;-74
2022/06/20 13:53:37;;;;;;;6.97;3.20;;;28.10;1.00;;;;;;5011120;28;20292;-74